Terminal Aerodrome Forecast
Issued by NWS Cleveland, OH

Home | Current Version | Previous Version | Text Only | Print | Product List | Glossary Off
Versions: 1 2 3 4 5 6 7 8 9 10 11 12 13 14 15 16 17 18 19 20 21 22

000
FTUS41 KCLE 180200 AAA
TAFERI
TAF AMD
KERI 180253Z 1803/1824 25010G18KT P6SM -SHRA SCT040 BKN060
      TEMPO 1804/1808 5SM -SHRA BR OVC028
     FM180800 30012G22KT 5SM -SHRA BR SCT009 OVC018
     FM181600 31015G25KT 6SM -SHRA BKN028=

USA.gov is the U.S. government's official web portal to all federal, state and local government web resources and services.